createdAt,value
2023-03-29T00:00:22.298Z,63.01
2023-03-29T00:03:16.532Z,63.09
2023-03-29T00:06:04.901Z,63.14
2023-03-29T00:08:55.927Z,63.33
2023-03-29T00:11:42.008Z,63.42
2023-03-29T00:14:29.893Z,63.38
2023-03-29T00:17:39.743Z,63.50
2023-03-29T00:20:26.430Z,63.73
2023-03-29T00:23:11.726Z,63.93
2023-03-29T00:25:57.353Z,64.00
2023-03-29T00:28:42.325Z,64.16
2023-03-29T00:31:27.915Z,64.43
2023-03-29T00:40:48.344Z,65.52
2023-03-29T00:43:53.628Z,65.41
2023-03-29T00:49:32.523Z,65.31
2023-03-29T00:52:23.113Z,65.25
2023-03-29T00:55:15.183Z,64.95
2023-03-29T00:58:02.057Z,64.83
2023-03-29T01:01:18.703Z,64.59
2023-03-29T01:04:17.372Z,64.62
2023-03-29T01:07:08.596Z,64.85
2023-03-29T01:10:00.200Z,64.79
2023-03-29T01:12:55.708Z,64.91
2023-03-29T01:15:45.525Z,65.09
2023-03-29T01:21:27.248Z,65.20
2023-03-29T01:24:15.685Z,65.43
2023-03-29T01:27:22.067Z,65.37
2023-03-29T01:33:02.086Z,65.77
2023-03-29T01:35:56.924Z,65.83
2023-03-29T01:38:56.557Z,66.10
2023-03-29T01:42:21.893Z,66.15
2023-03-29T01:45:25.974Z,66.29
2023-03-29T01:48:51.040Z,66.35
2023-03-29T01:54:36.507Z,66.62
2023-03-29T01:57:24.331Z,66.42
2023-03-29T02:00:15.046Z,66.62
2023-03-29T02:03:05.219Z,66.53
2023-03-29T02:05:53.128Z,66.50
2023-03-29T02:08:40.906Z,66.76
2023-03-29T02:11:28.651Z,66.76
2023-03-29T02:23:08.048Z,67.54
2023-03-29T02:25:56.280Z,67.49
2023-03-29T02:28:42.428Z,67.35
2023-03-29T02:34:24.485Z,67.50
2023-03-29T02:43:06.877Z,67.39
2023-03-29T02:45:53.905Z,67.32
2023-03-29T02:48:40.224Z,67.52
2023-03-29T02:57:43.391Z,67.66
2023-03-29T03:00:29.001Z,67.64
2023-03-29T03:06:15.253Z,67.42
2023-03-29T03:09:02.081Z,67.61
2023-03-29T03:11:48.339Z,67.43
2023-03-29T03:17:33.268Z,67.30
2023-03-29T03:20:21.428Z,67.22
2023-03-29T03:23:08.436Z,67.49
2023-03-29T03:25:53.608Z,67.38
2023-03-29T03:28:54.550Z,67.67
2023-03-29T03:34:56.046Z,67.68
2023-03-29T03:37:41.597Z,67.72
2023-03-29T03:40:28.409Z,67.61
2023-03-29T03:45:59.878Z,67.64
2023-03-29T03:49:02.968Z,67.68
2023-03-29T03:51:49.835Z,67.57
2023-03-29T03:57:20.399Z,67.34
2023-03-29T04:00:16.601Z,67.11
2023-03-29T04:03:05.342Z,67.01
2023-03-29T04:08:52.121Z,67.27
2023-03-29T04:11:37.293Z,67.29
2023-03-29T04:14:22.912Z,67.09
2023-03-29T04:17:08.111Z,67.11
2023-03-29T04:19:53.280Z,67.14
2023-03-29T04:22:39.674Z,67.13
2023-03-29T04:25:24.779Z,67.14
2023-03-29T04:28:10.931Z,67.07
2023-03-29T04:46:42.709Z,67.63
2023-03-29T04:49:29.799Z,67.75
2023-03-29T04:52:15.357Z,67.94
2023-03-29T05:01:03.895Z,68.06
2023-03-29T05:03:50.820Z,67.93
2023-03-29T05:09:47.375Z,67.95
2023-03-29T05:12:32.970Z,67.96
2023-03-29T05:15:18.335Z,67.88
2023-03-29T05:20:52.973Z,67.85
2023-03-29T05:23:39.048Z,68.13
2023-03-29T05:26:24.882Z,68.12
2023-03-29T05:29:11.705Z,67.93
2023-03-29T05:32:04.471Z,67.79
2023-03-29T05:34:49.713Z,67.98
2023-03-29T05:37:35.117Z,68.08
2023-03-29T05:40:20.545Z,67.95
2023-03-29T05:46:05.659Z,67.96
2023-03-29T05:48:51.906Z,68.15
2023-03-29T05:51:36.866Z,68.14
2023-03-29T05:54:23.589Z,68.07
2023-03-29T05:57:40.144Z,67.99
2023-03-29T06:00:26.579Z,67.76
2023-03-29T06:03:21.491Z,67.58
2023-03-29T06:06:09.850Z,67.54
2023-03-29T06:08:56.190Z,67.28
2023-03-29T06:11:41.479Z,67.08
2023-03-29T06:17:39.970Z,66.34
2023-03-29T06:26:08.139Z,66.22
2023-03-29T06:28:53.431Z,66.26
2023-03-29T06:31:40.233Z,66.47
2023-03-29T06:34:25.480Z,66.17
2023-03-29T06:37:10.386Z,66.05
2023-03-29T06:39:56.383Z,66.20
2023-03-29T06:42:42.593Z,66.01
2023-03-29T06:45:31.086Z,65.95
2023-03-29T06:54:46.993Z,64.55
2023-03-29T07:09:25.586Z,63.38
2023-03-29T07:15:03.924Z,62.45
2023-03-29T07:17:49.262Z,61.18
2023-03-29T07:20:34.972Z,60.35
2023-03-29T07:23:20.780Z,59.83
2023-03-29T07:26:09.887Z,57.51
2023-03-29T07:28:54.828Z,58.06
2023-03-29T07:31:40.999Z,58.10
2023-03-29T07:34:26.587Z,58.96
2023-03-29T07:37:11.625Z,57.65
2023-03-29T07:42:58.248Z,56.98
2023-03-29T07:48:39.892Z,55.89
2023-03-29T07:51:32.023Z,55.76
2023-03-29T07:54:17.660Z,54.52
2023-03-29T07:57:03.937Z,54.78
2023-03-29T07:59:49.302Z,55.23
2023-03-29T08:02:34.259Z,54.02
2023-03-29T08:05:37.868Z,54.03
2023-03-29T08:08:26.056Z,53.33
2023-03-29T08:17:41.133Z,52.52
2023-03-29T08:23:31.903Z,50.20
2023-03-29T08:32:55.692Z,50.74
2023-03-29T08:35:42.252Z,50.40
2023-03-29T08:38:31.987Z,49.38
2023-03-29T08:41:25.009Z,47.83
2023-03-29T08:44:26.193Z,46.63
2023-03-29T08:47:25.689Z,46.61
2023-03-29T08:50:13.158Z,46.36
2023-03-29T08:53:04.350Z,46.66
2023-03-29T08:55:55.216Z,46.04
2023-03-29T08:58:41.752Z,44.44
2023-03-29T09:01:33.609Z,44.91
2023-03-29T09:04:26.804Z,42.97
2023-03-29T09:07:13.280Z,40.81
2023-03-29T09:10:00.874Z,40.89
2023-03-29T09:16:17.851Z,39.70
2023-03-29T09:19:34.034Z,39.69
2023-03-29T09:22:33.312Z,41.44
2023-03-29T09:28:14.141Z,40.51
2023-03-29T09:37:30.082Z,37.24
2023-03-29T09:40:54.783Z,37.61
2023-03-29T09:43:42.315Z,36.63
2023-03-29T09:46:48.416Z,37.33
2023-03-29T09:49:39.091Z,35.84
2023-03-29T10:02:09.652Z,36.74
2023-03-29T10:11:34.646Z,35.03
2023-03-29T10:14:36.871Z,33.38
2023-03-29T10:17:33.171Z,34.14
2023-03-29T10:20:20.826Z,35.89
2023-03-29T10:25:53.865Z,35.33
2023-03-29T10:28:41.611Z,34.38
2023-03-29T10:31:32.847Z,34.91
2023-03-29T10:34:19.860Z,35.58
2023-03-29T10:50:01.654Z,35.83
2023-03-29T10:52:50.265Z,35.47
2023-03-29T10:59:02.870Z,34.95
2023-03-29T11:02:12.971Z,35.34
2023-03-29T11:05:16.685Z,36.07
2023-03-29T11:08:16.925Z,35.25
2023-03-29T11:14:06.917Z,32.38
2023-03-29T11:17:04.728Z,32.57
2023-03-29T11:20:15.478Z,32.53
2023-03-29T11:26:33.487Z,33.15
2023-03-29T11:29:26.640Z,32.69
2023-03-29T11:32:52.781Z,32.39
2023-03-29T11:39:00.992Z,32.21
2023-03-29T11:42:42.665Z,33.02
2023-03-29T11:55:41.827Z,29.91
2023-03-29T11:58:39.340Z,30.25
2023-03-29T12:01:37.494Z,29.86
2023-03-29T12:07:16.249Z,29.13
2023-03-29T12:10:21.161Z,29.41
2023-03-29T12:13:30.453Z,29.35
2023-03-29T12:16:24.597Z,30.77
2023-03-29T12:42:17.384Z,29.56
2023-03-29T12:51:17.656Z,30.45
2023-03-29T12:57:40.696Z,29.67
2023-03-29T13:00:43.289Z,30.21
2023-03-29T13:03:41.851Z,28.71
2023-03-29T13:06:31.880Z,28.54
2023-03-29T13:15:50.941Z,25.55
2023-03-29T13:18:44.807Z,25.59
2023-03-29T13:31:44.022Z,27.26
2023-03-29T13:37:39.449Z,28.18
2023-03-29T14:09:35.704Z,27.43
2023-03-29T14:38:02.265Z,26.33
2023-03-29T14:56:27.950Z,29.15
2023-03-29T15:02:31.726Z,29.49
2023-03-29T15:05:54.509Z,29.67
2023-03-29T15:11:57.391Z,30.66
2023-03-29T15:14:42.831Z,31.60
2023-03-29T15:17:43.126Z,31.65
2023-03-29T15:20:39.148Z,31.67
2023-03-29T15:23:25.037Z,31.97
2023-03-29T15:26:36.140Z,32.44
2023-03-29T15:29:25.327Z,32.57
2023-03-29T15:32:20.618Z,32.84
2023-03-29T15:35:08.732Z,33.56
2023-03-29T15:37:53.711Z,34.44
2023-03-29T15:40:39.425Z,35.10
2023-03-29T15:46:27.149Z,36.84
2023-03-29T15:49:38.724Z,37.81
2023-03-29T15:52:24.200Z,38.10
2023-03-29T15:55:09.866Z,38.73
2023-03-29T15:57:57.440Z,39.52
2023-03-29T16:00:47.592Z,39.86
2023-03-29T16:03:32.707Z,40.40
2023-03-29T16:06:17.921Z,41.06
2023-03-29T16:09:05.687Z,41.31
2023-03-29T16:11:51.101Z,41.70
2023-03-29T16:14:36.300Z,42.37
2023-03-29T16:17:22.077Z,42.25
2023-03-29T16:20:09.611Z,42.71
2023-03-29T16:22:55.175Z,43.17
2023-03-29T16:25:40.734Z,43.10
2023-03-29T16:29:01.220Z,43.47
2023-03-29T16:31:47.979Z,43.68
2023-03-29T16:34:33.086Z,44.03
2023-03-29T16:37:17.919Z,44.18
2023-03-29T16:40:09.056Z,44.09
2023-03-29T16:43:18.297Z,44.50
2023-03-29T16:46:07.265Z,44.63
2023-03-29T16:48:53.142Z,45.06
2023-03-29T16:51:39.137Z,45.44
2023-03-29T16:54:25.165Z,45.73
2023-03-29T16:57:10.564Z,46.09
2023-03-29T16:59:55.580Z,46.35
2023-03-29T17:02:43.298Z,46.48
2023-03-29T17:05:30.183Z,46.53
2023-03-29T17:08:58.349Z,46.60
2023-03-29T17:11:43.213Z,46.97
2023-03-29T17:14:28.277Z,47.08
2023-03-29T17:17:13.781Z,47.71
2023-03-29T17:19:59.163Z,47.61
2023-03-29T17:22:44.504Z,47.72
2023-03-29T17:25:29.640Z,48.06
2023-03-29T17:28:14.754Z,48.60
2023-03-29T17:31:03.345Z,48.65
2023-03-29T17:33:51.344Z,48.86
2023-03-29T17:36:36.733Z,48.55
2023-03-29T17:39:24.518Z,49.22
2023-03-29T17:42:09.852Z,49.28
2023-03-29T17:44:55.164Z,48.99
2023-03-29T17:47:40.115Z,49.40
2023-03-29T17:50:25.682Z,49.34
2023-03-29T17:53:51.694Z,49.22
2023-03-29T17:59:39.467Z,49.69
2023-03-29T18:02:29.223Z,50.13
2023-03-29T18:05:14.426Z,50.22
2023-03-29T18:07:59.983Z,50.51
2023-03-29T18:10:45.378Z,50.73
2023-03-29T18:13:30.908Z,50.91
2023-03-29T18:16:16.395Z,51.01
2023-03-29T18:19:01.458Z,51.32
2023-03-29T18:24:49.122Z,51.72
2023-03-29T18:27:44.891Z,51.74
2023-03-29T18:30:32.403Z,52.07
2023-03-29T18:33:17.975Z,51.89
2023-03-29T18:36:10.693Z,52.38
2023-03-29T18:39:04.763Z,52.54
2023-03-29T18:41:50.271Z,52.44
2023-03-29T18:47:32.762Z,52.85
2023-03-29T18:50:19.801Z,52.99
2023-03-29T18:53:06.141Z,52.81
2023-03-29T18:55:51.381Z,53.23
2023-03-29T18:58:36.846Z,53.00
2023-03-29T19:01:22.474Z,53.19
2023-03-29T19:04:08.068Z,53.40
2023-03-29T19:06:55.000Z,53.46
2023-03-29T19:09:42.861Z,53.91
2023-03-29T19:12:29.123Z,54.13
2023-03-29T19:18:09.414Z,54.19
2023-03-29T19:20:54.565Z,54.41
2023-03-29T19:23:40.389Z,54.23
2023-03-29T19:26:27.955Z,54.52
2023-03-29T19:29:14.211Z,54.67
2023-03-29T19:32:00.334Z,54.64
2023-03-29T19:34:45.586Z,54.82
2023-03-29T19:40:24.798Z,55.46
2023-03-29T19:43:15.678Z,55.24
2023-03-29T19:46:09.817Z,55.48
2023-03-29T19:48:55.653Z,55.65
2023-03-29T19:51:41.712Z,55.63
2023-03-29T19:54:26.999Z,55.99
2023-03-29T20:00:08.243Z,56.11
2023-03-29T20:11:57.066Z,56.83
2023-03-29T20:27:44.503Z,58.21
2023-03-29T20:30:30.401Z,58.31
2023-03-29T20:33:16.904Z,58.12
2023-03-29T20:36:02.208Z,57.88
2023-03-29T20:38:50.854Z,57.83
2023-03-29T20:41:39.035Z,58.06
2023-03-29T20:44:27.780Z,58.30
2023-03-29T20:53:25.211Z,58.67
2023-03-29T20:56:12.505Z,59.17
2023-03-29T20:58:58.347Z,58.86
2023-03-29T21:05:16.050Z,59.30
2023-03-29T21:14:38.424Z,59.72
2023-03-29T21:17:24.534Z,59.69
2023-03-29T21:23:03.375Z,59.50
2023-03-29T21:25:48.831Z,59.61
2023-03-29T21:28:34.314Z,59.57
2023-03-29T21:34:17.849Z,59.75
2023-03-29T21:46:59.816Z,60.58
2023-03-29T21:52:46.801Z,60.63
2023-03-29T22:05:16.697Z,61.62
2023-03-29T22:08:03.465Z,62.12
2023-03-29T22:14:04.087Z,62.24
2023-03-29T22:35:37.793Z,62.64
2023-03-29T22:41:17.289Z,62.40
2023-03-29T22:47:07.405Z,62.72
2023-03-29T23:13:58.875Z,64.40
2023-03-29T23:16:44.161Z,64.65
2023-03-29T23:32:16.952Z,64.28
2023-03-29T23:35:03.837Z,64.19
